Crowley, Colorado
Current Conditions -  °F | °C
As of 7:53 AM on Wednesday 26 Nov 2014 (Local Time) from KLHX Reporting Station
Scattered Clouds Scattered Clouds  
Wind Chill: 26°   Ceiling: Unl
Heat Index: 32°   Visibility: 10mi
Dew Point: 27°   Wind: 6mph
Humidity: 82%   Direction: 270°W
Pressure: 30.27"   Gusts: NA
Location:  38.19°N, 103.86°W
Report Text: KLHX 261453Z AUTO 27005KT 10SM SCT039 00/M03 A3027 RMK AO2 SLP262 T00001028 52016
Loading
Personal Weather Stations






























Interactive Weather Map New forecast layout! Learn more

10-Day Weather Forecast

Advertisements
Track Severe Weather on mobile